Time;durP1;ratioP1;P1;durP2;ratioP2;P2;SDS_P1;SDS_P2;PMS_P1;PMS_P2;Temp;Humidity;BMP_temperature;BMP_pressure;BME280_temperature;BME280_humidity;BME280_pressure;Samples;Min_cycle;Max_cycle;Signal;HPM_P1;HPM_P2
2022/05/04 00:01:36;;;;;;;;;;;10.50;88.00;;;;;;5012284;28;19921;-76
2022/05/04 00:04:01;;;;;;;;;;;10.50;87.70;;;;;;5011913;28;20271;-75
2022/05/04 00:06:27;;;;;;;;;;;10.50;87.80;;;;;;5011949;28;19956;-74
2022/05/04 00:08:52;;;;;;;;;;;10.50;88.10;;;;;;5026759;28;19988;-74
2022/05/04 00:11:18;;;;;;;;;;;10.50;88.10;;;;;;5011405;28;19931;-74
2022/05/04 00:13:44;;;;;;;;;;;10.60;88.10;;;;;;5012394;28;19913;-74
2022/05/04 00:16:12;;;;;;;;;;;10.50;88.10;;;;;;5011753;28;19913;-74
2022/05/04 00:18:38;;;;;;;;;;;10.50;88.30;;;;;;5011730;28;20147;-74
2022/05/04 00:21:07;;;;;;;;;;;10.50;88.40;;;;;;5011867;28;20004;-75
2022/05/04 00:23:33;;;;;;;;;;;10.50;88.40;;;;;;5011543;28;19914;-74
2022/05/04 00:25:58;;;;;;;;;;;10.50;88.40;;;;;;5012008;28;19984;-74
2022/05/04 00:28:24;;;;;;;;;;;10.60;87.40;;;;;;5012171;28;19905;-75
2022/05/04 00:30:49;;;;;;;;;;;10.50;88.10;;;;;;5011455;28;19924;-75
2022/05/04 00:33:15;;;;;;;;;;;10.60;88.40;;;;;;5011872;28;19924;-75
2022/05/04 00:35:40;;;;;;;;;;;10.60;87.40;;;;;;5013586;28;19918;-74
2022/05/04 00:38:06;;;;;;;;;;;10.70;87.30;;;;;;5015696;28;19910;-75
2022/05/04 00:40:31;;;;;;;;;;;10.60;87.70;;;;;;5015741;28;19972;-75
2022/05/04 00:42:57;;;;;;;;;;;10.50;88.70;;;;;;5015222;28;20264;-73
2022/05/04 00:45:22;;;;;;;;;;;10.40;88.80;;;;;;5015152;28;20358;-74
2022/05/04 00:47:48;;;;;;;;;;;10.40;88.90;;;;;;5046907;28;19914;-74
2022/05/04 00:50:13;;;;;;;;;;;10.40;88.60;;;;;;5015103;28;19921;-75
2022/05/04 00:52:41;;;;;;;;;;;10.30;88.80;;;;;;5015477;28;19914;-74
2022/05/04 00:55:08;;;;;;;;;;;10.20;89.10;;;;;;5015299;28;19917;-74
2022/05/04 01:00:19;;;;;;;;;;;10.10;89.70;;;;;;5015396;28;20263;-74
2022/05/04 01:02:44;;;;;;;;;;;10.00;89.80;;;;;;5015116;28;19914;-75
2022/05/04 01:05:10;;;;;;;;;;;10.00;89.90;;;;;;5014994;28;19921;-74
2022/05/04 01:07:36;;;;;;;;;;;10.00;90.10;;;;;;5015414;28;19914;-74
2022/05/04 01:10:03;;;;;;;;;;;9.90;90.60;;;;;;5014772;28;19917;-74
2022/05/04 01:12:28;;;;;;;;;;;9.80;90.70;;;;;;5014677;28;19976;-73
2022/05/04 01:14:54;;;;;;;;;;;9.70;90.70;;;;;;5014732;28;19918;-74
2022/05/04 01:17:19;;;;;;;;;;;9.70;90.90;;;;;;5014547;28;19913;-72
2022/05/04 01:19:45;;;;;;;;;;;9.70;90.90;;;;;;5015156;28;19924;-74
2022/05/04 01:22:10;;;;;;;;;;;9.70;90.80;;;;;;5014737;28;20008;-74
2022/05/04 01:24:36;;;;;;;;;;;9.70;90.90;;;;;;5014649;28;20004;-74
2022/05/04 01:27:01;;;;;;;;;;;9.60;91.00;;;;;;5014692;28;20295;-75
2022/05/04 01:29:26;;;;;;;;;;;9.60;91.00;;;;;;5014427;28;19960;-74
2022/05/04 01:31:52;;;;;;;;;;;9.60;91.00;;;;;;5014967;28;19961;-73
2022/05/04 01:34:17;;;;;;;;;;;9.70;91.20;;;;;;5014552;28;19914;-74
2022/05/04 01:36:43;;;;;;;;;;;9.60;91.40;;;;;;5014360;28;19921;-73
2022/05/04 01:39:08;;;;;;;;;;;9.70;91.10;;;;;;5014408;28;19952;-74
2022/05/04 01:44:21;;;;;;;;;;;9.80;90.70;;;;;;5014286;28;19988;-76
2022/05/04 01:46:46;;;;;;;;;;;9.90;90.50;;;;;;5028680;28;20419;-74
2022/05/04 01:49:12;;;;;;;;;;;9.90;90.40;;;;;;5045768;28;20004;-74
2022/05/04 01:51:37;;;;;;;;;;;9.80;90.70;;;;;;5046133;28;20079;-74
2022/05/04 01:54:03;;;;;;;;;;;9.80;90.80;;;;;;5013846;28;19914;-74
2022/05/04 01:56:31;;;;;;;;;;;9.60;91.00;;;;;;5013820;28;19946;-74
2022/05/04 01:58:57;;;;;;;;;;;9.50;91.10;;;;;;5045922;28;19924;-74
2022/05/04 02:01:22;;;;;;;;;;;9.50;91.20;;;;;;5014524;28;19909;-74
2022/05/04 02:03:48;;;;;;;;;;;9.40;91.30;;;;;;5013882;28;19913;-74
2022/05/04 02:06:14;;;;;;;;;;;9.40;91.40;;;;;;5014011;28;20348;-74
2022/05/04 02:08:41;;;;;;;;;;;9.30;91.50;;;;;;5013905;28;19914;-74
2022/05/04 02:11:06;;;;;;;;;;;9.30;91.50;;;;;;5013739;28;19978;-73
2022/05/04 02:13:32;;;;;;;;;;;9.40;91.60;;;;;;5014203;28;19918;-74
2022/05/04 02:15:57;;;;;;;;;;;9.30;91.60;;;;;;5013874;28;19914;-74
2022/05/04 02:18:23;;;;;;;;;;;9.30;91.70;;;;;;5013689;28;19913;-74
2022/05/04 02:20:48;;;;;;;;;;;9.20;91.70;;;;;;5013563;28;19925;-74
2022/05/04 02:23:14;;;;;;;;;;;9.20;91.90;;;;;;5013401;28;20558;-74
2022/05/04 02:25:39;;;;;;;;;;;9.20;91.90;;;;;;5013903;28;19920;-76
2022/05/04 02:28:05;;;;;;;;;;;9.10;91.90;;;;;;5013462;28;19924;-74
2022/05/04 02:30:30;;;;;;;;;;;9.20;91.90;;;;;;5013246;28;19917;-74
2022/05/04 02:32:56;;;;;;;;;;;9.10;91.90;;;;;;5013447;28;19917;-74
2022/05/04 02:38:05;;;;;;;;;;;8.90;92.10;;;;;;5013356;28;19916;-72
2022/05/04 02:40:31;;;;;;;;;;;9.00;92.10;;;;;;5013639;28;19994;-74
2022/05/04 02:42:56;;;;;;;;;;;9.00;92.10;;;;;;5013098;28;19914;-73
2022/05/04 02:45:22;;;;;;;;;;;9.00;92.10;;;;;;5013271;28;19975;-74
2022/05/04 02:47:47;;;;;;;;;;;9.00;92.10;;;;;;5013112;28;19971;-73
2022/05/04 02:50:13;;;;;;;;;;;9.00;92.10;;;;;;5012978;28;19911;-73
2022/05/04 02:52:38;;;;;;;;;;;9.00;92.10;;;;;;5013467;28;19921;-73
2022/05/04 02:55:04;;;;;;;;;;;8.90;92.20;;;;;;5045002;28;19913;-73
2022/05/04 02:57:30;;;;;;;;;;;8.80;92.30;;;;;;5012437;28;19921;-73
2022/05/04 02:59:58;;;;;;;;;;;8.70;92.30;;;;;;5013155;28;20306;-72
2022/05/04 03:02:29;;;;;;;;;;;8.80;92.20;;;;;;5012846;28;19917;-72
2022/05/04 03:04:59;;;;;;;;;;;8.80;92.30;;;;;;5012974;28;20009;-73
2022/05/04 03:07:25;;;;;;;;;;;8.80;92.30;;;;;;5013201;28;19984;-73
2022/05/04 03:09:50;;;;;;;;;;;8.80;92.20;;;;;;5013014;28;19918;-73
2022/05/04 03:12:16;;;;;;;;;;;8.80;92.60;;;;;;5012529;28;19933;-73
2022/05/04 03:14:43;;;;;;;;;;;8.80;92.20;;;;;;5012751;28;19947;-72
2022/05/04 03:17:08;;;;;;;;;;;8.90;92.20;;;;;;5012583;28;20295;-73
2022/05/04 03:19:33;;;;;;;;;;;8.80;92.30;;;;;;5013125;28;19910;-72
2022/05/04 03:21:59;;;;;;;;;;;8.70;92.40;;;;;;5012653;28;19913;-73
2022/05/04 03:24:25;;;;;;;;;;;8.70;92.50;;;;;;5012316;28;20445;-73
2022/05/04 03:26:50;;;;;;;;;;;8.70;92.60;;;;;;5012364;28;20369;-74
2022/05/04 03:29:16;;;;;;;;;;;8.80;92.40;;;;;;5012108;28;19918;-73
2022/05/04 03:31:41;;;;;;;;;;;8.70;92.50;;;;;;5012663;28;19978;-73
2022/05/04 03:34:07;;;;;;;;;;;8.60;92.60;;;;;;5012316;28;19941;-72
2022/05/04 03:36:32;;;;;;;;;;;8.60;92.70;;;;;;5012203;28;19971;-73
2022/05/04 03:39:01;;;;;;;;;;;8.60;92.60;;;;;;5027753;28;19913;-73
2022/05/04 03:41:27;;;;;;;;;;;8.60;92.70;;;;;;5011976;28;19914;-74
2022/05/04 03:43:52;;;;;;;;;;;8.70;92.50;;;;;;5012478;28;19920;-73
2022/05/04 03:46:19;;;;;;;;;;;8.70;92.60;;;;;;5012058;28;20020;-74
2022/05/04 03:48:45;;;;;;;;;;;8.60;92.60;;;;;;5011838;28;20318;-73
2022/05/04 03:51:13;;;;;;;;;;;8.50;92.80;;;;;;5027190;28;20000;-73
2022/05/04 03:53:39;;;;;;;;;;;8.50;92.90;;;;;;5012168;28;19913;-73
2022/05/04 03:56:08;;;;;;;;;;;8.50;92.80;;;;;;5011926;28;19919;-73
2022/05/04 03:58:34;;;;;;;;;;;8.50;92.90;;;;;;5012223;28;19906;-73
2022/05/04 04:01:00;;;;;;;;;;;8.60;92.90;;;;;;5011963;28;19949;-72
2022/05/04 04:03:25;;;;;;;;;;;8.50;92.90;;;;;;5011747;28;19951;-73
2022/05/04 04:05:51;;;;;;;;;;;8.50;93.00;;;;;;5011701;28;19975;-73
2022/05/04 04:08:16;;;;;;;;;;;8.50;93.10;;;;;;5011711;28;19917;-72
2022/05/04 04:10:42;;;;;;;;;;;8.50;93.00;;;;;;5043462;28;19924;-72
2022/05/04 04:13:07;;;;;;;;;;;8.50;93.10;;;;;;5011756;28;20306;-73
2022/05/04 04:15:33;;;;;;;;;;;8.50;93.10;;;;;;5011595;28;20012;-73
2022/05/04 04:17:58;;;;;;;;;;;8.40;93.00;;;;;;5011758;28;19913;-73
2022/05/04 04:23:08;;;;;;;;;;;8.40;93.20;;;;;;5011673;28;19975;-73
2022/05/04 04:25:34;;;;;;;;;;;8.40;93.40;;;;;;5043969;28;19914;-72
2022/05/04 04:27:59;;;;;;;;;;;8.40;93.30;;;;;;5011565;28;20009;-73
2022/05/04 04:30:25;;;;;;;;;;;8.60;93.30;;;;;;5011735;28;19989;-72
2022/05/04 04:32:50;;;;;;;;;;;8.50;93.30;;;;;;5011763;28;19979;-73
2022/05/04 04:35:16;;;;;;;;;;;8.50;93.30;;;;;;5011363;28;19917;-73
2022/05/04 04:37:41;;;;;;;;;;;8.60;93.30;;;;;;5012221;28;19971;-73
2022/05/04 04:40:07;;;;;;;;;;;8.60;93.30;;;;;;5011384;28;19913;-73
2022/05/04 04:42:32;;;;;;;;;;;8.60;93.40;;;;;;5011408;28;20316;-74
2022/05/04 04:44:58;;;;;;;;;;;8.60;93.40;;;;;;5011357;28;19917;-74
2022/05/04 04:47:25;;;;;;;;;;;8.60;93.50;;;;;;5011127;28;20210;-73
2022/05/04 04:49:51;;;;;;;;;;;8.60;93.50;;;;;;5010960;28;19955;-73
2022/05/04 04:52:17;;;;;;;;;;;8.60;93.60;;;;;;5010886;28;19918;-73
2022/05/04 04:54:44;;;;;;;;;;;8.60;93.70;;;;;;5011350;28;19918;-74
2022/05/04 04:57:09;;;;;;;;;;;8.80;93.50;;;;;;5011322;28;19995;-73
2022/05/04 04:59:34;;;;;;;;;;;8.80;93.50;;;;;;5026704;28;20351;-73
2022/05/04 05:02:00;;;;;;;;;;;8.80;93.50;;;;;;5011050;28;20405;-74
2022/05/04 05:04:25;;;;;;;;;;;8.80;93.50;;;;;;5011858;28;20339;-74
2022/05/04 05:06:51;;;;;;;;;;;8.90;93.50;;;;;;5011033;28;20395;-73
2022/05/04 05:09:16;;;;;;;;;;;8.90;93.50;;;;;;5010903;28;20251;-73
2022/05/04 05:11:42;;;;;;;;;;;9.00;93.20;;;;;;5010972;28;19921;-74
2022/05/04 05:16:51;;;;;;;;;;;9.30;92.40;;;;;;5011525;28;19936;-74
2022/05/04 05:19:17;;;;;;;;;;;9.40;92.30;;;;;;5011040;28;19925;-75
2022/05/04 05:21:42;;;;;;;;;;;9.40;92.10;;;;;;5028260;28;19952;-74
2022/05/04 05:24:08;;;;;;;;;;;9.50;91.90;;;;;;5029932;28;20267;-75
2022/05/04 05:26:33;;;;;;;;;;;9.60;91.80;;;;;;5014555;28;19964;-74
2022/05/04 05:28:59;;;;;;;;;;;9.70;91.80;;;;;;5014431;28;20427;-74
2022/05/04 05:31:25;;;;;;;;;;;9.80;91.60;;;;;;5014711;28;19913;-74
2022/05/04 05:33:50;;;;;;;;;;;9.90;91.60;;;;;;5014380;28;20336;-73
2022/05/04 05:36:16;;;;;;;;;;;9.90;91.70;;;;;;5014132;28;19925;-75
2022/05/04 05:38:41;;;;;;;;;;;10.00;91.20;;;;;;5046025;28;19913;-74
2022/05/04 05:41:06;;;;;;;;;;;10.00;91.10;;;;;;5046314;28;20036;-74
2022/05/04 05:43:32;;;;;;;;;;;10.20;90.90;;;;;;5014458;28;19928;-74
2022/05/04 05:45:57;;;;;;;;;;;10.20;90.60;;;;;;5014494;28;20055;-75
2022/05/04 05:48:23;;;;;;;;;;;10.20;90.20;;;;;;5013841;28;20263;-74
2022/05/04 05:50:48;;;;;;;;;;;10.30;90.10;;;;;;5014019;28;19924;-73
2022/05/04 05:53:17;;;;;;;;;;;10.40;89.60;;;;;;5045995;28;19920;-75
2022/05/04 05:55:43;;;;;;;;;;;10.40;89.10;;;;;;5014323;28;19910;-75
2022/05/04 05:58:10;;;;;;;;;;;10.50;89.30;;;;;;5013940;28;20459;-74
2022/05/04 06:00:36;;;;;;;;;;;10.60;89.30;;;;;;5045982;28;20255;-75
2022/05/04 06:03:01;;;;;;;;;;;10.60;88.80;;;;;;5013609;28;20004;-74
2022/05/04 06:05:27;;;;;;;;;;;10.70;88.60;;;;;;5013584;28;20068;-75
2022/05/04 06:07:52;;;;;;;;;;;10.70;88.60;;;;;;5013817;28;20350;-74
2022/05/04 06:10:18;;;;;;;;;;;10.80;88.50;;;;;;5013653;28;19914;-73
2022/05/04 06:12:44;;;;;;;;;;;10.90;88.30;;;;;;5013395;28;19917;-73
2022/05/04 06:15:10;;;;;;;;;;;11.00;87.90;;;;;;5013702;28;19967;-73
2022/05/04 06:17:36;;;;;;;;;;;11.00;87.30;;;;;;5012997;28;20325;-74
2022/05/04 06:20:02;;;;;;;;;;;11.10;86.80;;;;;;5029165;28;19914;-73
2022/05/04 06:22:27;;;;;;;;;;;11.10;87.10;;;;;;5013741;28;19925;-74
2022/05/04 06:24:52;;;;;;;;;;;11.10;86.20;;;;;;5013291;28;20318;-73
2022/05/04 06:27:18;;;;;;;;;;;11.20;85.90;;;;;;5013324;28;19985;-74
2022/05/04 06:34:06;;;;;;;;;;;11.40;85.10;;;;;;5012468;28;20011;-73
2022/05/04 06:35:16;;;;;;;;;;;11.50;84.20;;;;;;5013222;28;19918;-74
2022/05/04 06:37:44;;;;;;;;;;;11.60;83.80;;;;;;5013505;28;20000;-74
2022/05/04 06:40:10;;;;;;;;;;;11.60;83.30;;;;;;5013150;28;20007;-74
2022/05/04 06:42:36;;;;;;;;;;;11.80;82.90;;;;;;5013117;28;19977;-74
2022/05/04 06:45:02;;;;;;;;;;;12.00;81.70;;;;;;5012779;28;19917;-73
2022/05/04 06:47:28;;;;;;;;;;;12.10;81.20;;;;;;5028084;28;19914;-74
2022/05/04 06:49:53;;;;;;;;;;;12.40;81.20;;;;;;5012987;28;19925;-75
2022/05/04 06:52:19;;;;;;;;;;;12.60;80.10;;;;;;5012827;28;20295;-75
2022/05/04 06:54:45;;;;;;;;;;;13.00;79.70;;;;;;5012396;28;19949;-75
2022/05/04 06:57:10;;;;;;;;;;;13.40;78.60;;;;;;5012962;28;19929;-74
2022/05/04 06:59:36;;;;;;;;;;;13.50;77.30;;;;;;5044854;28;20024;-75
2022/05/04 07:02:01;;;;;;;;;;;13.50;76.60;;;;;;5012450;28;19972;-74
2022/05/04 07:04:27;;;;;;;;;;;13.60;76.70;;;;;;5013222;28;19967;-76
2022/05/04 07:06:55;;;;;;;;;;;14.00;76.40;;;;;;5012798;28;19983;-74
2022/05/04 07:09:21;;;;;;;;;;;14.70;74.90;;;;;;5012550;28;20387;-75
2022/05/04 07:11:46;;;;;;;;;;;14.90;73.00;;;;;;5012369;28;19976;-75
2022/05/04 07:14:13;;;;;;;;;;;15.00;72.50;;;;;;5012356;28;19968;-75
2022/05/04 07:16:38;;;;;;;;;;;15.40;72.00;;;;;;5012476;28;20383;-75
2022/05/04 07:19:04;;;;;;;;;;;15.70;70.30;;;;;;5044591;28;19914;-75
2022/05/04 07:21:29;;;;;;;;;;;15.90;69.10;;;;;;5027834;28;19913;-75
2022/05/04 07:23:55;;;;;;;;;;;16.20;68.40;;;;;;5012234;28;19914;-75
2022/05/04 07:26:21;;;;;;;;;;;16.40;67.10;;;;;;5012354;28;19917;-74
2022/05/04 07:28:46;;;;;;;;;;;16.70;66.50;;;;;;5012653;28;20047;-75
2022/05/04 07:31:12;;;;;;;;;;;17.20;66.10;;;;;;5027525;28;20023;-75
2022/05/04 07:33:37;;;;;;;;;;;17.60;64.20;;;;;;5012319;28;19922;-75
2022/05/04 07:36:06;;;;;;;;;;;17.80;62.70;;;;;;5011935;28;20275;-75
2022/05/04 07:38:31;;;;;;;;;;;18.00;62.00;;;;;;5012222;28;20275;-75
2022/05/04 07:43:46;;;;;;;;;;;18.70;61.80;;;;;;5020186;28;20331;-75
2022/05/04 07:46:14;;;;;;;;;;;19.00;59.60;;;;;;5011511;28;19918;-74
2022/05/04 07:48:40;;;;;;;;;;;19.10;58.50;;;;;;5011643;28;19936;-75
2022/05/04 07:51:08;;;;;;;;;;;18.90;58.20;;;;;;5011680;28;19925;-75
2022/05/04 07:53:35;;;;;;;;;;;18.10;57.60;;;;;;5011870;28;20366;-75
2022/05/04 07:56:00;;;;;;;;;;;18.50;58.60;;;;;;5011659;28;20402;-75
2022/05/04 07:58:26;;;;;;;;;;;19.20;59.10;;;;;;5044129;28;19909;-75
2022/05/04 08:06:20;;;;;;;;;;;21.30;54.70;;;;;;5011723;28;19932;-75
2022/05/04 08:08:45;;;;;;;;;;;21.50;53.30;;;;;;5026922;28;19921;-77
2022/05/04 08:11:11;;;;;;;;;;;21.80;53.00;;;;;;5011566;28;19928;-76
2022/05/04 08:13:36;;;;;;;;;;;21.80;52.90;;;;;;5027421;28;20346;-76
2022/05/04 08:16:07;;;;;;;;;;;22.00;52.10;;;;;;5011568;28;20247;-75
2022/05/04 08:18:33;;;;;;;;;;;22.20;51.50;;;;;;5011530;28;19951;-75
2022/05/04 08:20:59;;;;;;;;;;;22.60;51.10;;;;;;5011423;28;19925;-75
2022/05/04 08:23:25;;;;;;;;;;;22.90;49.80;;;;;;5011395;28;19913;-75
2022/05/04 08:25:51;;;;;;;;;;;23.00;48.40;;;;;;5011916;28;20258;-76
2022/05/04 08:28:18;;;;;;;;;;;23.40;48.30;;;;;;5011496;28;19918;-76
2022/05/04 08:30:43;;;;;;;;;;;24.30;48.40;;;;;;5011371;28;19917;-76
2022/05/04 08:33:08;;;;;;;;;;;24.50;46.20;;;;;;5011471;28;20247;-76
2022/05/04 08:35:34;;;;;;;;;;;24.40;47.00;;;;;;5011059;28;19913;-76
2022/05/04 08:38:00;;;;;;;;;;;25.10;46.30;;;;;;5011328;28;19909;-76
2022/05/04 08:40:25;;;;;;;;;;;25.50;45.40;;;;;;5011977;28;19901;-75
2022/05/04 08:42:51;;;;;;;;;;;25.60;45.20;;;;;;5026618;28;19944;-76
2022/05/04 08:45:17;;;;;;;;;;;25.80;44.70;;;;;;5011352;28;19913;-77
2022/05/04 08:47:44;;;;;;;;;;;26.00;44.30;;;;;;5011434;28;20009;-76
2022/05/04 08:50:10;;;;;;;;;;;26.00;43.90;;;;;;5042946;28;20385;-76
2022/05/04 08:52:37;;;;;;;;;;;25.60;44.40;;;;;;5011560;28;19936;-76
2022/05/04 08:55:04;;;;;;;;;;;25.90;43.30;;;;;;5011239;28;19922;-74
2022/05/04 08:57:30;;;;;;;;;;;25.80;42.90;;;;;;5014606;28;19914;-76
2022/05/04 08:59:56;;;;;;;;;;;26.00;42.10;;;;;;5015144;28;20236;-76
2022/05/04 09:02:21;;;;;;;;;;;26.50;43.30;;;;;;5047030;28;19933;-77
2022/05/04 09:04:46;;;;;;;;;;;26.80;42.30;;;;;;5015419;28;19910;-76
2022/05/04 09:07:25;;;;;;;;;;;27.40;41.50;;;;;;5015050;28;20015;-76
2022/05/04 09:09:51;;;;;;;;;;;27.90;40.60;;;;;;5030045;28;19959;-76
2022/05/04 09:12:16;;;;;;;;;;;27.90;40.20;;;;;;5014725;28;19921;-76
2022/05/04 09:14:43;;;;;;;;;;;27.90;40.60;;;;;;5014690;28;19971;-76
2022/05/04 09:17:09;;;;;;;;;;;28.10;39.70;;;;;;5030152;28;20391;-76
2022/05/04 09:19:34;;;;;;;;;;;27.80;39.80;;;;;;5014961;28;19941;-77
2022/05/04 09:22:00;;;;;;;;;;;28.00;39.70;;;;;;5014889;28;20031;-77
2022/05/04 09:24:26;;;;;;;;;;;28.20;39.60;;;;;;5014489;28;20422;-77
2022/05/04 09:26:53;;;;;;;;;;;28.10;39.10;;;;;;5014654;28;20378;-77
2022/05/04 09:29:18;;;;;;;;;;;28.00;39.10;;;;;;5014744;28;19913;-75
2022/05/04 09:31:47;;;;;;;;;;;27.10;38.70;;;;;;5014774;28;20267;-76
2022/05/04 09:34:15;;;;;;;;;;;27.00;39.00;;;;;;5014478;28;20013;-75
2022/05/04 09:44:54;;;;;;;;;;;27.50;39.90;;;;;;5014286;28;19918;-77
2022/05/04 09:45:26;;;;;;;;;;;28.20;38.60;;;;;;5014196;28;19924;-75
2022/05/04 09:47:54;;;;;;;;;;;27.30;38.60;;;;;;5013075;28;19914;-76
2022/05/04 09:50:20;;;;;;;;;;;28.20;38.60;;;;;;5046488;28;19917;-75
2022/05/04 09:52:49;;;;;;;;;;;28.00;37.40;;;;;;5014210;28;19964;-74
2022/05/04 09:55:19;;;;;;;;;;;28.00;37.90;;;;;;5013996;28;19913;-75
2022/05/04 09:57:45;;;;;;;;;;;28.30;37.30;;;;;;5013725;28;20000;-75
2022/05/04 10:00:13;;;;;;;;;;;28.70;38.30;;;;;;5013657;28;20020;-77
2022/05/04 10:02:39;;;;;;;;;;;28.80;37.60;;;;;;5013835;28;19924;-76
2022/05/04 10:05:05;;;;;;;;;;;28.30;38.30;;;;;;5013788;28;19909;-76
2022/05/04 10:07:31;;;;;;;;;;;27.90;38.80;;;;;;5013203;28;19902;-75
2022/05/04 10:09:56;;;;;;;;;;;27.00;39.40;;;;;;5045664;28;19925;-75
2022/05/04 10:12:23;;;;;;;;;;;26.30;40.20;;;;;;5028948;28;19918;-75
2022/05/04 10:14:50;;;;;;;;;;;25.70;40.90;;;;;;5013664;28;19996;-76
2022/05/04 10:17:25;;;;;;;;;;;25.50;41.50;;;;;;5013475;28;19936;-75
2022/05/04 10:19:56;;;;;;;;;;;25.00;42.40;;;;;;5014250;28;19909;-74
2022/05/04 10:22:27;;;;;;;;;;;23.80;42.30;;;;;;5013855;28;20008;-76
2022/05/04 10:24:54;;;;;;;;;;;24.00;43.30;;;;;;5013494;28;19918;-75
2022/05/04 10:27:22;;;;;;;;;;;23.60;43.10;;;;;;5013559;28;20237;-76
2022/05/04 10:32:33;;;;;;;;;;;23.00;44.00;;;;;;5013318;28;20023;-75
2022/05/04 10:35:08;;;;;;;;;;;22.70;44.40;;;;;;5028555;28;19996;-75
2022/05/04 10:37:34;;;;;;;;;;;22.40;45.30;;;;;;5013597;28;19905;-74
2022/05/04 10:40:06;;;;;;;;;;;22.60;45.10;;;;;;5013008;28;19921;-76
2022/05/04 10:42:50;;;;;;;;;;;22.70;45.20;;;;;;5013152;28;20007;-75
2022/05/04 10:45:16;;;;;;;;;;;23.00;45.60;;;;;;5013161;28;19933;-76
2022/05/04 10:47:41;;;;;;;;;;;22.80;45.90;;;;;;5013014;28;19937;-76
2022/05/04 10:50:07;;;;;;;;;;;22.40;46.10;;;;;;5044883;28;19922;-76
2022/05/04 10:52:45;;;;;;;;;;;22.20;46.60;;;;;;5013318;28;19924;-75
2022/05/04 10:55:11;;;;;;;;;;;22.00;46.90;;;;;;5012828;28;19914;-76
2022/05/04 10:57:43;;;;;;;;;;;22.00;47.10;;;;;;5012895;28;20127;-76
2022/05/04 11:00:10;;;;;;;;;;;22.00;47.20;;;;;;5012910;28;19924;-75
2022/05/04 11:02:41;;;;;;;;;;;21.90;47.30;;;;;;5012955;28;20327;-75
2022/05/04 11:05:13;;;;;;;;;;;21.70;47.30;;;;;;5012670;28;19914;-75
2022/05/04 11:07:39;;;;;;;;;;;21.40;47.90;;;;;;5013260;28;19902;-75
2022/05/04 11:10:04;;;;;;;;;;;21.10;48.20;;;;;;5012727;28;19940;-75
2022/05/04 11:12:30;;;;;;;;;;;21.00;48.40;;;;;;5012578;28;19957;-75
2022/05/04 11:14:56;;;;;;;;;;;21.00;48.50;;;;;;5044466;28;19972;-74
2022/05/04 11:17:22;;;;;;;;;;;21.20;48.70;;;;;;5012490;28;20230;-76
2022/05/04 11:19:48;;;;;;;;;;;21.10;48.50;;;;;;5012793;28;20360;-75
2022/05/04 11:22:14;;;;;;;;;;;21.30;48.60;;;;;;5012494;28;19917;-74
2022/05/04 11:24:40;;;;;;;;;;;21.30;48.80;;;;;;5012551;28;20286;-76
2022/05/04 11:27:06;;;;;;;;;;;21.50;48.80;;;;;;5012405;28;19971;-75
2022/05/04 11:29:33;;;;;;;;;;;21.50;48.80;;;;;;5027560;28;20355;-75
2022/05/04 11:32:03;;;;;;;;;;;21.40;48.70;;;;;;5012313;28;19913;-74
2022/05/04 11:34:30;;;;;;;;;;;21.30;48.90;;;;;;5012669;28;20012;-75
2022/05/04 11:36:56;;;;;;;;;;;21.30;48.90;;;;;;5012193;28;19960;-75
2022/05/04 11:39:23;;;;;;;;;;;21.50;49.00;;;;;;5012139;28;20008;-76
2022/05/04 11:41:50;;;;;;;;;;;21.40;49.00;;;;;;5012061;28;19973;-76
2022/05/04 11:44:18;;;;;;;;;;;21.50;48.90;;;;;;5012078;28;19918;-75
2022/05/04 11:46:44;;;;;;;;;;;21.50;49.00;;;;;;5012478;28;19913;-76
2022/05/04 11:49:10;;;;;;;;;;;21.50;48.90;;;;;;5012055;28;19933;-75
2022/05/04 11:51:36;;;;;;;;;;;21.60;48.90;;;;;;5011980;28;20590;-75
2022/05/04 11:54:02;;;;;;;;;;;21.70;48.90;;;;;;5012093;28;19917;-76
2022/05/04 11:56:27;;;;;;;;;;;21.70;48.70;;;;;;5027260;28;19925;-75
2022/05/04 11:58:53;;;;;;;;;;;21.70;49.30;;;;;;5012332;28;19913;-75
2022/05/04 12:01:19;;;;;;;;;;;21.80;48.80;;;;;;5011890;28;20056;-75
2022/05/04 12:03:44;;;;;;;;;;;21.70;48.80;;;;;;5011951;28;19976;-75
2022/05/04 12:06:11;;;;;;;;;;;21.70;48.70;;;;;;5011863;28;20225;-75
2022/05/04 12:08:37;;;;;;;;;;;21.80;48.90;;;;;;5011754;28;19925;-74
2022/05/04 12:11:08;;;;;;;;;;;21.50;48.70;;;;;;5011671;28;19981;-74
2022/05/04 12:13:38;;;;;;;;;;;21.50;49.20;;;;;;5012222;28;20240;-75
2022/05/04 12:16:08;;;;;;;;;;;21.60;49.20;;;;;;5011706;28;19927;-76
2022/05/04 12:18:34;;;;;;;;;;;21.60;49.10;;;;;;5011779;28;20064;-75
2022/05/04 12:21:10;;;;;;;;;;;21.50;49.10;;;;;;5011452;28;20311;-74
2022/05/04 12:23:36;;;;;;;;;;;21.40;49.00;;;;;;5043607;28;19984;-75
2022/05/04 12:26:10;;;;;;;;;;;21.30;49.00;;;;;;5011450;28;19932;-75
2022/05/04 12:28:36;;;;;;;;;;;21.00;49.50;;;;;;5012019;28;19905;-75
2022/05/04 12:33:50;;;;;;;;;;;20.70;50.00;;;;;;5015577;28;20327;-76
2022/05/04 12:36:18;;;;;;;;;;;20.80;50.20;;;;;;5015530;28;19927;-75
2022/05/04 12:38:48;;;;;;;;;;;21.00;50.20;;;;;;5015459;28;19985;-76
2022/05/04 12:41:26;;;;;;;;;;;21.20;50.10;;;;;;5015353;28;20016;-75
2022/05/04 12:43:51;;;;;;;;;;;21.20;50.70;;;;;;5015741;28;20004;-75
2022/05/04 12:46:19;;;;;;;;;;;21.20;49.90;;;;;;5015410;28;20415;-74
2022/05/04 12:48:45;;;;;;;;;;;21.10;49.90;;;;;;5014987;28;19984;-75
2022/05/04 12:51:13;;;;;;;;;;;21.10;50.00;;;;;;5015194;28;20464;-75
2022/05/04 12:53:38;;;;;;;;;;;21.10;50.00;;;;;;5015326;28;20251;-76
2022/05/04 12:58:52;;;;;;;;;;;20.90;50.10;;;;;;5015907;28;19921;-76
2022/05/04 13:01:22;;;;;;;;;;;21.00;50.30;;;;;;5014971;28;19913;-76
2022/05/04 13:03:48;;;;;;;;;;;20.70;50.30;;;;;;5014883;28;19914;-75
2022/05/04 13:06:13;;;;;;;;;;;20.50;51.00;;;;;;5046947;28;19975;-75
2022/05/04 13:08:39;;;;;;;;;;;20.60;50.80;;;;;;5014987;28;19971;-74
2022/05/04 13:11:07;;;;;;;;;;;20.40;51.20;;;;;;5046998;28;19920;-75
2022/05/04 13:13:33;;;;;;;;;;;20.60;51.30;;;;;;5015251;28;20299;-76
2022/05/04 13:15:58;;;;;;;;;;;20.80;51.10;;;;;;5014597;28;19913;-75
2022/05/04 13:18:24;;;;;;;;;;;20.90;51.00;;;;;;5046724;28;20006;-76
2022/05/04 13:20:49;;;;;;;;;;;20.40;51.00;;;;;;5014671;28;20308;-76
2022/05/04 13:23:15;;;;;;;;;;;20.40;51.50;;;;;;5014720;28;19948;-75
2022/05/04 13:25:41;;;;;;;;;;;20.60;51.60;;;;;;5015203;28;19957;-75
2022/05/04 13:28:06;;;;;;;;;;;20.60;51.30;;;;;;5046543;28;19940;-75
2022/05/04 13:30:32;;;;;;;;;;;20.60;51.40;;;;;;5014488;28;20339;-73
2022/05/04 13:32:58;;;;;;;;;;;20.70;51.80;;;;;;5014337;28;19922;-75
2022/05/04 13:35:24;;;;;;;;;;;20.60;52.10;;;;;;5029781;28;19918;-74
2022/05/04 13:37:49;;;;;;;;;;;20.50;52.20;;;;;;5014742;28;19983;-75
2022/05/04 13:40:15;;;;;;;;;;;20.50;52.30;;;;;;5046269;28;19914;-75
2022/05/04 13:42:41;;;;;;;;;;;20.50;52.20;;;;;;5014333;28;19929;-74
2022/05/04 13:45:08;;;;;;;;;;;20.40;52.20;;;;;;5014127;28;19940;-74
2022/05/04 13:47:33;;;;;;;;;;;20.50;52.30;;;;;;5014052;28;20419;-75
2022/05/04 13:49:58;;;;;;;;;;;20.40;52.40;;;;;;5013985;28;20004;-75
2022/05/04 13:55:08;;;;;;;;;;;20.20;53.00;;;;;;5013634;28;20020;-75
2022/05/04 13:57:34;;;;;;;;;;;20.40;53.00;;;;;;5014245;28;20000;-75
2022/05/04 13:59:59;;;;;;;;;;;20.40;52.90;;;;;;5014058;28;20356;-76
2022/05/04 14:02:25;;;;;;;;;;;20.50;52.90;;;;;;5045874;28;20331;-74
2022/05/04 14:04:50;;;;;;;;;;;20.30;52.80;;;;;;5014376;28;19909;-75
2022/05/04 14:07:16;;;;;;;;;;;20.20;52.90;;;;;;5013803;28;20004;-75
2022/05/04 14:09:42;;;;;;;;;;;20.30;53.10;;;;;;5013949;28;20008;-75
2022/05/04 14:12:07;;;;;;;;;;;20.40;53.00;;;;;;5013847;28;19930;-75
2022/05/04 14:17:18;;;;;;;;;;;20.50;53.00;;;;;;5013911;28;20327;-74
2022/05/04 14:19:43;;;;;;;;;;;20.50;52.90;;;;;;5014267;28;19949;-75
2022/05/04 14:22:09;;;;;;;;;;;20.40;52.70;;;;;;5045452;28;19917;-75
2022/05/04 14:24:34;;;;;;;;;;;20.60;53.10;;;;;;5013453;28;19914;-74
2022/05/04 14:27:00;;;;;;;;;;;20.70;53.00;;;;;;5028785;28;19936;-75
2022/05/04 14:29:25;;;;;;;;;;;20.90;53.00;;;;;;5013337;28;19914;-75
2022/05/04 14:31:51;;;;;;;;;;;20.60;52.70;;;;;;5013561;28;19953;-75
2022/05/04 14:34:16;;;;;;;;;;;20.50;52.80;;;;;;5013428;28;20327;-75
2022/05/04 14:36:42;;;;;;;;;;;20.40;52.80;;;;;;5013476;28;19913;-75
2022/05/04 14:39:08;;;;;;;;;;;20.40;52.70;;;;;;5045044;28;19924;-77
2022/05/04 14:41:33;;;;;;;;;;;20.40;52.60;;;;;;5013124;28;19921;-75
2022/05/04 14:43:59;;;;;;;;;;;20.50;53.00;;;;;;5013068;28;19988;-76
2022/05/04 14:46:24;;;;;;;;;;;20.60;52.30;;;;;;5013503;28;19912;-74
2022/05/04 14:48:50;;;;;;;;;;;20.70;52.60;;;;;;5028463;28;19926;-74
2022/05/04 14:51:15;;;;;;;;;;;20.70;52.60;;;;;;5013142;28;19914;-76
2022/05/04 14:53:45;;;;;;;;;;;20.70;52.50;;;;;;5012500;28;19980;-74
2022/05/04 14:56:11;;;;;;;;;;;20.60;52.50;;;;;;5012935;28;20039;-76
2022/05/04 14:58:36;;;;;;;;;;;20.60;52.60;;;;;;5013231;28;20000;-76
2022/05/04 15:01:08;;;;;;;;;;;20.50;52.70;;;;;;5013247;28;19967;-75